Time;durP1;ratioP1;P1;durP2;ratioP2;P2;SDS_P1;SDS_P2;PMS_P1;PMS_P2;Temp;Humidity;BMP_temperature;BMP_pressure;BME280_temperature;BME280_humidity;BME280_pressure;Samples;Min_cycle;Max_cycle;Signal;HPM_P1;HPM_P2
2022/06/04 00:00:37;;;;;;;;;;;;;;;12.85;100.00;99565.00;6311408;22;20334;-86
2022/06/04 00:03:03;;;;;;;;;;;;;;;13.20;100.00;99570.13;6311477;22;20043;-84
2022/06/04 00:05:30;;;;;;;;;;;;;;;12.86;100.00;99572.06;6337858;22;19910;-90
2022/06/04 00:07:57;;;;;;;;;;;;;;;12.78;100.00;99573.41;6311836;22;19994;-86
2022/06/04 00:15:57;;;;;;;;;;;;;;;12.79;100.00;99564.50;6338983;22;19921;-85
2022/06/04 00:18:23;;;;;;;;;;;;;;;13.00;100.00;99567.75;6338261;22;19914;-87
2022/06/04 00:20:49;;;;;;;;;;;;;;;12.87;100.00;99572.91;6309943;22;19914;-85
2022/06/04 00:23:14;;;;;;;;;;;;;;;12.64;100.00;99588.31;6337987;22;19957;-86
2022/06/04 00:25:41;;;;;;;;;;;;;;;12.95;100.00;99585.78;6311730;22;19917;-85
2022/06/04 00:28:07;;;;;;;;;;;;;;;13.13;100.00;99594.50;6311624;22;19938;-86
2022/06/04 00:30:32;;;;;;;;;;;;;;;12.68;100.00;99592.53;6311559;22;19914;-84
2022/06/04 00:32:58;;;;;;;;;;;;;;;12.98;100.00;99590.91;6311166;22;19953;-87
2022/06/04 00:35:24;;;;;;;;;;;;;;;13.15;100.00;99592.66;6337878;22;20242;-87
2022/06/04 00:37:49;;;;;;;;;;;;;;;12.70;100.00;99597.75;6338765;22;19957;-88
2022/06/04 00:40:24;;;;;;;;;;;;;;;12.84;100.00;99600.53;6311180;22;19942;-88
2022/06/04 00:42:49;;;;;;;;;;;;;;;13.09;100.00;99605.31;6338594;22;19915;-84
2022/06/04 00:45:32;;;;;;;;;;;;;;;12.66;100.00;99617.47;6338953;22;20487;-89
2022/06/04 00:48:01;;;;;;;;;;;;;;;12.46;100.00;99614.09;6338985;22;19915;-89
2022/06/04 00:50:27;;;;;;;;;;;;;;;12.37;100.00;99617.25;6308124;22;20229;-87
2022/06/04 00:52:54;;;;;;;;;;;;;;;12.34;100.00;99612.09;6310322;22;19917;-86
2022/06/04 00:55:20;;;;;;;;;;;;;;;12.80;100.00;99606.09;6336664;22;20314;-87
2022/06/04 00:57:45;;;;;;;;;;;;;;;12.91;100.00;99603.72;6338210;22;19914;-86
2022/06/04 01:00:17;;;;;;;;;;;;;;;12.60;100.00;99601.84;6337802;22;20385;-93
2022/06/04 01:02:52;;;;;;;;;;;;;;;12.94;100.00;99597.34;6310326;22;19935;-86
2022/06/04 01:05:20;;;;;;;;;;;;;;;12.73;100.00;99594.91;6335533;22;19918;-85
2022/06/04 01:07:49;;;;;;;;;;;;;;;12.66;100.00;99585.59;6338758;22;19911;-87
2022/06/04 03:35:47;;;;;;;;;;;;;;;11.82;100.00;99584.63;6318581;22;19933;-87
2022/06/04 03:38:12;;;;;;;;;;;;;;;11.73;100.00;99579.78;6312134;22;19914;-87
2022/06/04 03:40:37;;;;;;;;;;;;;;;11.74;100.00;99565.59;6311907;22;20242;-86
2022/06/04 03:43:03;;;;;;;;;;;;;;;11.82;100.00;99579.31;6311777;22;19986;-86
2022/06/04 03:45:28;;;;;;;;;;;;;;;12.24;100.00;99565.69;6311567;22;19914;-85
2022/06/04 03:47:54;;;;;;;;;;;;;;;12.42;100.00;99571.84;6312082;22;20338;-91
2022/06/04 03:50:19;;;;;;;;;;;;;;;12.06;100.00;99572.84;6310368;22;19997;-88
2022/06/04 03:52:45;;;;;;;;;;;;;;;11.88;100.00;99569.31;6339306;22;19981;-86
2022/06/04 03:55:11;;;;;;;;;;;;;;;11.80;100.00;99586.47;6312070;22;19925;-86
2022/06/04 04:00:27;;;;;;;;;;;;;;;11.76;100.00;99594.72;6317787;22;19910;-87
2022/06/04 04:02:56;;;;;;;;;;;;;;;11.68;100.00;99603.06;6339695;22;20338;-86
2022/06/04 04:05:23;;;;;;;;;;;;;;;11.69;100.00;99611.84;6310047;22;20274;-86
2022/06/04 04:07:49;;;;;;;;;;;;;;;11.68;100.00;99612.78;6339154;22;19985;-87
2022/06/04 04:10:15;;;;;;;;;;;;;;;11.66;100.00;99610.22;6339069;22;19918;-88
2022/06/04 04:12:40;;;;;;;;;;;;;;;11.65;100.00;99613.81;6339360;22;19922;-90
2022/06/04 04:15:06;;;;;;;;;;;;;;;11.65;100.00;99605.84;6339581;22;19910;-88
2022/06/04 04:17:32;;;;;;;;;;;;;;;11.63;100.00;99610.34;6339436;22;19919;-89
2022/06/04 04:19:57;;;;;;;;;;;;;;;11.67;100.00;99611.94;6337523;22;19942;-89
2022/06/04 04:22:25;;;;;;;;;;;;;;;11.60;100.00;99616.69;6339143;22;19910;-90
2022/06/04 04:24:51;;;;;;;;;;;;;;;11.60;100.00;99621.16;6311648;22;20287;-86
2022/06/04 04:27:16;;;;;;;;;;;;;;;11.61;100.00;99630.81;6338859;22;19938;-86
2022/06/04 04:29:41;;;;;;;;;;;;;;;11.60;100.00;99624.66;6338997;22;19919;-85
2022/06/04 04:32:07;;;;;;;;;;;;;;;11.59;100.00;99645.97;6311603;22;19981;-85
2022/06/04 04:34:32;;;;;;;;;;;;;;;11.58;100.00;99637.16;6309807;22;19919;-85
2022/06/04 04:36:58;;;;;;;;;;;;;;;11.59;100.00;99624.72;6313148;22;19922;-85
2022/06/04 04:39:23;;;;;;;;;;;;;;;11.53;100.00;99627.69;6307422;22;19956;-85
2022/06/04 04:41:48;;;;;;;;;;;;;;;11.54;100.00;99619.66;6307564;22;19990;-84
2022/06/04 04:44:14;;;;;;;;;;;;;;;11.49;100.00;99620.81;6307444;22;19911;-85
2022/06/04 04:46:39;;;;;;;;;;;;;;;11.48;100.00;99617.28;6307562;22;19911;-84
2022/06/04 04:49:04;;;;;;;;;;;;;;;11.45;100.00;99618.31;6278856;22;19918;-85
2022/06/04 04:51:30;;;;;;;;;;;;;;;11.55;100.00;99625.81;6307396;22;19946;-85
2022/06/04 04:53:56;;;;;;;;;;;;;;;11.44;100.00;99613.09;6307921;22;19910;-85
2022/06/04 04:56:22;;;;;;;;;;;;;;;11.43;100.00;99609.56;6307596;22;20334;-87
2022/06/04 04:58:56;;;;;;;;;;;;;;;11.44;100.00;99615.75;6307344;22;19915;-87
2022/06/04 05:01:26;;;;;;;;;;;;;;;11.34;100.00;99620.63;6307844;22;19914;-86
2022/06/04 05:03:51;;;;;;;;;;;;;;;11.38;100.00;99619.53;6306739;22;19972;-86
2022/06/04 05:06:18;;;;;;;;;;;;;;;11.35;100.00;99618.84;6306184;22;20294;-88
2022/06/04 05:08:43;;;;;;;;;;;;;;;11.35;100.00;99616.19;6307549;22;19934;-86
2022/06/04 07:38:28;;;;;;;;;;;;;;;11.57;100.00;99711.53;6302987;22;20053;-88
2022/06/04 07:40:54;;;;;;;;;;;;;;;11.92;100.00;99709.81;6309618;22;20235;-87
2022/06/04 07:43:19;;;;;;;;;;;;;;;12.10;100.00;99705.38;6312094;22;20006;-87
2022/06/04 07:45:44;;;;;;;;;;;;;;;11.61;100.00;99702.47;6339183;22;20246;-88
2022/06/04 07:48:10;;;;;;;;;;;;;;;11.81;100.00;99693.53;6339401;22;19918;-87
2022/06/04 07:50:37;;;;;;;;;;;;;;;12.22;100.00;99692.41;6339186;22;19915;-88
2022/06/04 07:53:02;;;;;;;;;;;;;;;11.92;100.00;99687.75;6337769;22;20385;-88
2022/06/04 07:55:27;;;;;;;;;;;;;;;11.95;100.00;99684.91;6339111;22;19915;-87
2022/06/04 07:57:53;;;;;;;;;;;;;;;12.23;100.00;99678.22;6339476;22;20237;-89
2022/06/04 08:00:23;;;;;;;;;;;;;;;12.04;100.00;99678.28;6311725;22;19915;-88
2022/06/04 08:02:49;;;;;;;;;;;;;;;11.77;100.00;99682.19;6339463;22;20327;-88
2022/06/04 08:05:14;;;;;;;;;;;;;;;12.20;100.00;99683.69;6338983;22;19914;-88
2022/06/04 08:07:39;;;;;;;;;;;;;;;12.28;100.00;99678.81;6337795;22;19914;-88
2022/06/04 08:10:05;;;;;;;;;;;;;;;11.81;100.00;99680.28;6311902;22;19910;-88
2022/06/04 08:12:32;;;;;;;;;;;;;;;12.07;100.00;99694.06;6338939;22;19937;-87
2022/06/04 08:14:57;;;;;;;;;;;;;;;12.37;100.00;99702.25;6338994;22;19996;-88
2022/06/04 08:17:23;;;;;;;;;;;;;;;11.97;100.00;99704.28;6311831;22;19921;-87
2022/06/04 08:19:49;;;;;;;;;;;;;;;12.09;100.00;99701.00;6338934;22;19972;-87
2022/06/04 08:22:14;;;;;;;;;;;;;;;12.32;100.00;99704.31;6310162;22;19911;-88
2022/06/04 08:24:40;;;;;;;;;;;;;;;11.98;100.00;99700.69;6311648;22;19910;-88
2022/06/04 08:27:06;;;;;;;;;;;;;;;12.27;100.00;99706.31;6339297;22;20035;-87
2022/06/04 08:29:34;;;;;;;;;;;;;;;12.52;100.00;99717.41;6339142;22;19949;-87
2022/06/04 08:32:00;;;;;;;;;;;;;;;12.09;100.00;99716.94;6338797;22;20234;-87
2022/06/04 08:34:25;;;;;;;;;;;;;;;12.42;100.00;99721.47;6338593;22;20329;-87
2022/06/04 08:36:50;;;;;;;;;;;;;;;12.45;100.00;99731.94;6338828;22;19918;-87
2022/06/04 08:39:16;;;;;;;;;;;;;;;12.06;100.00;99735.72;6336759;22;19989;-87
2022/06/04 08:42:01;;;;;;;;;;;;;;;12.45;100.00;99731.94;6338890;22;19915;-87
2022/06/04 08:44:29;;;;;;;;;;;;;;;12.30;100.00;99732.72;6338754;22;19914;-87
2022/06/04 08:47:07;;;;;;;;;;;;;;;12.25;100.00;99740.06;6338635;22;19989;-87
2022/06/04 08:49:37;;;;;;;;;;;;;;;12.57;100.00;99738.41;6338050;22;19910;-92
2022/06/04 08:52:09;;;;;;;;;;;;;;;12.16;100.00;99741.41;6338664;22;20028;-87
2022/06/04 08:57:33;;;;;;;;;;;;;;;12.59;100.00;99743.66;6338688;22;20258;-90
2022/06/04 09:00:04;;;;;;;;;;;;;;;12.26;100.00;99739.16;6338838;22;19914;-87
2022/06/04 09:02:44;;;;;;;;;;;;;;;12.57;100.00;99734.91;6338617;22;20314;-86
2022/06/04 09:05:09;;;;;;;;;;;;;;;12.43;100.00;99733.84;6338488;22;19922;-87
2022/06/04 09:07:40;;;;;;;;;;;;;;;12.39;100.00;99734.06;6337001;22;19911;-86
2022/06/04 09:10:12;;;;;;;;;;;;;;;12.73;100.00;99730.50;6338176;22;19906;-87
2022/06/04 09:12:45;;;;;;;;;;;;;;;12.29;100.00;99731.03;6338714;22;19911;-87
2022/06/04 09:15:31;;;;;;;;;;;;;;;12.62;100.00;99728.44;6338601;22;19929;-87
2022/06/04 09:17:58;;;;;;;;;;;;;;;12.65;100.00;99732.72;6326671;22;19989;-87
2022/06/04 09:20:53;;;;;;;;;;;;;;;12.41;100.00;99725.06;6310694;22;19993;-87
2022/06/04 09:23:33;;;;;;;;;;;;;;;12.78;100.00;99728.47;6279252;22;19937;-87
2022/06/04 09:26:08;;;;;;;;;;;;;;;12.28;100.00;99735.47;6310772;22;19963;-87
2022/06/04 09:28:39;;;;;;;;;;;;;;;12.66;100.00;99734.44;6338301;22;19918;-87
2022/06/04 09:31:17;;;;;;;;;;;;;;;12.66;100.00;99739.75;6311062;22;19915;-87
2022/06/04 09:33:42;;;;;;;;;;;;;;;12.56;100.00;99741.16;6310988;22;19915;-87
2022/06/04 09:36:12;;;;;;;;;;;;;;;12.92;100.00;99735.72;6338368;22;20072;-87
2022/06/04 09:38:37;;;;;;;;;;;;;;;12.50;100.00;99739.69;6336640;22;20241;-87
2022/06/04 09:41:05;;;;;;;;;;;;;;;12.83;100.00;99742.38;6338300;22;20262;-86
2022/06/04 09:43:30;;;;;;;;;;;;;;;12.91;100.00;99736.66;6338400;22;20002;-86
2022/06/04 09:45:58;;;;;;;;;;;;;;;12.62;100.00;99743.50;6335088;22;19946;-92
2022/06/04 09:48:31;;;;;;;;;;;;;;;12.83;100.00;99734.41;6248935;22;20350;-87
2022/06/04 09:51:00;;;;;;;;;;;;;;;12.69;100.00;99740.44;6275944;22;19919;-87
2022/06/04 09:53:41;;;;;;;;;;;;;;;12.87;100.00;99729.78;6274344;22;19916;-87
2022/06/04 09:56:12;;;;;;;;;;;;;;;12.99;100.00;99734.44;6248813;22;19915;-87
2022/06/04 09:58:38;;;;;;;;;;;;;;;12.69;100.00;99737.78;6249030;22;19918;-87
2022/06/04 10:01:08;;;;;;;;;;;;;;;12.95;100.00;99738.19;6276277;22;20285;-88
2022/06/04 10:03:47;;;;;;;;;;;;;;;12.92;100.00;99740.19;6275786;22;19919;-87
2022/06/04 10:06:14;;;;;;;;;;;;;;;12.85;100.00;99735.19;6245517;22;19911;-87
2022/06/04 10:11:54;;;;;;;;;;;;;;;12.77;100.00;99737.38;6275770;22;20002;-87
2022/06/04 10:14:28;;;;;;;;;;;;;;;13.10;100.00;99725.91;6275736;22;19920;-88
2022/06/04 10:16:54;;;;;;;;;;;;;;;12.82;100.00;99719.38;6275608;22;19911;-86
2022/06/04 10:19:21;;;;;;;;;;;;;;;12.98;100.00;99718.56;6275796;22;19995;-87
2022/06/04 10:21:47;;;;;;;;;;;;;;;13.17;100.00;99721.09;6275670;22;19982;-87
2022/06/04 10:24:20;;;;;;;;;;;;;;;12.89;100.00;99723.44;6274490;22;19911;-87
2022/06/04 10:27:04;;;;;;;;;;;;;;;13.05;100.00;99714.63;6275631;22;19982;-87
2022/06/04 10:29:42;;;;;;;;;;;;;;;12.96;100.00;99713.34;6275758;22;20323;-87
2022/06/04 10:32:07;;;;;;;;;;;;;;;13.05;100.00;99718.16;6275689;22;19915;-88
2022/06/04 10:34:38;;;;;;;;;;;;;;;13.22;100.00;99722.53;6275556;22;19917;-87
2022/06/04 10:37:10;;;;;;;;;;;;;;;12.93;100.00;99717.97;6275421;22;19919;-87
2022/06/04 10:39:57;;;;;;;;;;;;;;;13.14;100.00;99719.44;6275289;22;19918;-87
2022/06/04 10:42:38;;;;;;;;;;;;;;;12.93;100.00;99715.31;6275583;22;19911;-87
2022/06/04 10:45:03;;;;;;;;;;;;;;;13.12;100.00;99710.72;6275269;22;20002;-87
2022/06/04 10:47:31;;;;;;;;;;;;;;;13.19;100.00;99705.91;6296358;22;19965;-87
2022/06/04 10:50:20;;;;;;;;;;;;;;;12.95;100.00;99700.97;6306428;22;19911;-87
2022/06/04 10:52:51;;;;;;;;;;;;;;;13.30;100.00;99707.97;6277148;22;19911;-87
2022/06/04 10:55:19;;;;;;;;;;;;;;;12.95;100.00;99697.47;6306726;22;19937;-87
2022/06/04 10:58:03;;;;;;;;;;;;;;;13.23;100.00;99705.66;6306599;22;19910;-87
2022/06/04 11:00:36;;;;;;;;;;;;;;;13.20;100.00;99700.50;6306340;22;19911;-87
2022/06/04 11:03:05;;;;;;;;;;;;;;;13.15;100.00;99699.06;6306337;22;19914;-87
2022/06/04 11:05:35;;;;;;;;;;;;;;;13.34;100.00;99704.22;6306212;22;19922;-87
2022/06/04 11:11:09;;;;;;;;;;;;;;;13.29;100.00;99690.28;6306250;22;20044;-87
2022/06/04 11:13:43;;;;;;;;;;;;;;;13.03;100.00;99692.59;6306746;22;20234;-87
2022/06/04 11:16:18;;;;;;;;;;;;;;;13.27;100.00;99685.94;6306715;22;20388;-87
2022/06/04 11:18:43;;;;;;;;;;;;;;;13.44;100.00;99690.31;6306339;22;19942;-86
2022/06/04 11:21:19;;;;;;;;;;;;;;;13.10;100.00;99691.31;6279123;22;19965;-87
2022/06/04 11:23:49;;;;;;;;;;;;;;;13.33;100.00;99675.91;6304758;22;19914;-87
2022/06/04 11:26:17;;;;;;;;;;;;;;;13.09;100.00;99685.13;6306470;22;19957;-87
2022/06/04 11:32:08;;;;;;;;;;;;;;;13.23;100.00;99695.00;6228030;22;19979;-87
2022/06/04 11:34:33;;;;;;;;;;;;;;;13.19;100.00;99690.78;6278877;22;19915;-87
2022/06/04 11:37:01;;;;;;;;;;;;;;;13.37;100.00;99688.09;6278883;22;19907;-87
2022/06/04 11:39:36;;;;;;;;;;;;;;;12.96;100.00;99692.06;6277669;22;20318;-87
2022/06/04 11:42:06;;;;;;;;;;;;;;;13.26;100.00;99686.00;6306194;22;19911;-87
2022/06/04 11:44:37;;;;;;;;;;;;;;;13.46;100.00;99684.91;6306035;22;20177;-87
2022/06/04 11:47:15;;;;;;;;;;;;;;;13.15;100.00;99689.25;6306518;22;19915;-87
2022/06/04 11:49:43;;;;;;;;;;;;;;;13.42;100.00;99683.38;6280552;22;19918;-87
2022/06/04 11:52:15;;;;;;;;;;;;;;;13.18;100.00;99689.09;6307371;22;20364;-88
2022/06/04 11:57:24;;;;;;;;;;;;;;;13.48;100.00;99680.34;6326739;22;19973;-86
2022/06/04 12:00:07;;;;;;;;;;;;;;;13.25;100.00;99677.16;6311930;22;19910;-86
2022/06/04 12:02:40;;;;;;;;;;;;;;;13.51;100.00;99680.19;6312043;22;19964;-87
2022/06/04 12:05:05;;;;;;;;;;;;;;;13.09;100.00;99682.47;6339059;22;19923;-86
2022/06/04 12:07:39;;;;;;;;;;;;;;;13.38;100.00;99679.16;6310048;22;19914;-86
2022/06/04 12:10:20;;;;;;;;;;;;;;;13.53;100.00;99675.66;6338981;22;19917;-86
2022/06/04 12:12:51;;;;;;;;;;;;;;;13.34;100.00;99673.16;6339169;22;20352;-87
2022/06/04 12:15:25;;;;;;;;;;;;;;;13.57;100.00;99673.66;6339042;22;20314;-85
2022/06/04 12:17:54;;;;;;;;;;;;;;;13.18;100.00;99685.56;6338955;22;20302;-86
2022/06/04 12:26:17;;;;;;;;;;;;;;;13.42;100.00;99681.56;6338689;22;20261;-86
2022/06/04 12:28:43;;;;;;;;;;;;;;;13.58;100.00;99681.56;6339343;22;20273;-86
2022/06/04 12:31:08;;;;;;;;;;;;;;;13.39;100.00;99687.06;6339138;22;20307;-87
2022/06/04 12:33:33;;;;;;;;;;;;;;;13.56;100.00;99686.13;6311195;22;20392;-87
2022/06/04 12:36:04;;;;;;;;;;;;;;;13.53;100.00;99691.63;6338718;22;19914;-87
2022/06/04 12:38:30;;;;;;;;;;;;;;;13.41;100.00;99681.66;6336991;22;19938;-87
2022/06/04 12:41:14;;;;;;;;;;;;;;;13.59;100.00;99688.63;6311140;22;20316;-87
2022/06/04 12:43:45;;;;;;;;;;;;;;;13.34;100.00;99685.59;6338666;22;19922;-87
2022/06/04 12:46:16;;;;;;;;;;;;;;;13.55;100.00;99686.22;6311010;22;19936;-86
2022/06/04 12:48:59;;;;;;;;;;;;;;;13.55;100.00;99687.06;6338623;22;19914;-86
2022/06/04 12:51:25;;;;;;;;;;;;;;;13.50;100.00;99682.94;6311545;22;19948;-86
2022/06/04 12:53:53;;;;;;;;;;;;;;;13.62;100.00;99680.44;6337374;22;19956;-86
2022/06/04 12:56:22;;;;;;;;;;;;;;;13.27;100.00;99675.28;6327202;22;19990;-86
2022/06/04 12:58:53;;;;;;;;;;;;;;;13.54;100.00;99672.03;6280122;22;20285;-86
2022/06/04 13:01:18;;;;;;;;;;;;;;;13.69;100.00;99672.09;6279864;22;19922;-87
2022/06/04 13:03:45;;;;;;;;;;;;;;;13.50;100.00;99670.50;6307099;22;19915;-86
2022/06/04 13:06:13;;;;;;;;;;;;;;;13.60;100.00;99674.34;6307703;22;19925;-86
2022/06/04 13:08:45;;;;;;;;;;;;;;;13.49;100.00;99665.25;6306135;22;20303;-86
2022/06/04 13:11:20;;;;;;;;;;;;;;;13.73;100.00;99673.63;6280231;22;19954;-86
2022/06/04 13:13:51;;;;;;;;;;;;;;;13.76;100.00;99682.31;6307358;22;19913;-86
2022/06/04 13:16:17;;;;;;;;;;;;;;;13.54;100.00;99682.66;6307076;22;20322;-86
2022/06/04 13:18:43;;;;;;;;;;;;;;;13.74;100.00;99680.69;6307413;22;19911;-86
2022/06/04 13:21:14;;;;;;;;;;;;;;;13.62;100.00;99683.13;6307014;22;19922;-86
2022/06/04 13:23:45;;;;;;;;;;;;;;;13.74;100.00;99686.88;6305673;22;19918;-85
2022/06/04 13:26:16;;;;;;;;;;;;;;;13.88;100.00;99683.41;6280008;22;19915;-86
2022/06/04 13:28:43;;;;;;;;;;;;;;;13.55;100.00;99688.88;6307024;22;19991;-87
2022/06/04 13:31:24;;;;;;;;;;;;;;;13.78;100.00;99684.88;6306975;22;19942;-86
2022/06/04 13:33:50;;;;;;;;;;;;;;;13.61;100.00;99680.53;6306965;22;20230;-86
2022/06/04 13:36:18;;;;;;;;;;;;;;;13.63;100.00;99679.50;6307372;22;19915;-86
2022/06/04 13:38:44;;;;;;;;;;;;;;;13.86;100.00;99674.63;6305561;22;19917;-86
2022/06/04 13:44:30;;;;;;;;;;;;;;;13.84;100.00;99676.53;6307020;22;19918;-86
2022/06/04 13:47:10;;;;;;;;;;;;;;;13.62;100.00;99676.91;6306982;22;19915;-87
2022/06/04 13:49:36;;;;;;;;;;;;;;;13.84;100.00;99671.22;6306797;22;19989;-86
2022/06/04 13:52:09;;;;;;;;;;;;;;;13.94;100.00;99675.03;6279624;22;19963;-86
2022/06/04 13:54:36;;;;;;;;;;;;;;;13.66;100.00;99674.94;6306823;22;20330;-87
2022/06/04 13:57:03;;;;;;;;;;;;;;;13.85;100.00;99666.72;6306619;22;19930;-87
2022/06/04 13:59:41;;;;;;;;;;;;;;;13.88;100.00;99671.88;6279386;22;19997;-86
2022/06/04 14:02:11;;;;;;;;;;;;;;;13.77;100.00;99669.88;6278210;22;19911;-85
2022/06/04 14:07:30;;;;;;;;;;;;;;;13.72;100.00;99679.91;6304705;22;19921;-86
2022/06/04 14:09:55;;;;;;;;;;;;;;;13.94;100.00;99672.38;6279287;22;19915;-86
2022/06/04 14:12:40;;;;;;;;;;;;;;;13.87;100.00;99673.69;6305573;22;19937;-86
2022/06/04 14:15:25;;;;;;;;;;;;;;;13.89;100.00;99669.13;6306377;22;20227;-89
2022/06/04 14:17:57;;;;;;;;;;;;;;;14.56;100.00;99673.19;6306771;22;19911;-86
2022/06/04 14:20:29;;;;;;;;;;;;;;;13.91;100.00;99664.59;6306410;22;19915;-86
2022/06/04 14:22:58;;;;;;;;;;;;;;;14.01;100.00;99653.38;6305851;22;19919;-84
2022/06/04 14:25:34;;;;;;;;;;;;;;;13.75;100.00;99658.44;6304996;22;19911;-85
2022/06/04 14:28:20;;;;;;;;;;;;;;;13.89;100.00;99663.81;6306722;22;19911;-84
2022/06/04 14:30:48;;;;;;;;;;;;;;;14.28;100.00;99654.41;6278632;22;20443;-84
2022/06/04 14:33:31;;;;;;;;;;;;;;;14.51;100.00;99646.81;6307380;22;19911;-94
2022/06/04 14:35:59;;;;;;;;;;;;;;;14.47;100.00;99645.28;6307931;22;19910;-92
2022/06/04 14:38:25;;;;;;;;;;;;;;;14.21;100.00;99650.38;6279044;22;19997;-92
2022/06/04 14:41:01;;;;;;;;;;;;;;;14.31;100.00;99646.22;6307359;22;19946;-94
2022/06/04 14:43:41;;;;;;;;;;;;;;;14.52;100.00;99648.53;6279392;22;19960;-87
2022/06/04 14:46:13;;;;;;;;;;;;;;;14.34;100.00;99646.03;6307787;22;19911;-94
2022/06/04 14:48:56;;;;;;;;;;;;;;;14.46;100.00;99647.09;6307319;22;19922;-91
2022/06/04 14:51:32;;;;;;;;;;;;;;;14.16;100.00;99647.13;6306828;22;19918;-92
2022/06/04 14:53:57;;;;;;;;;;;;;;;14.29;100.00;99640.09;6305723;22;19960;-94
2022/06/04 14:56:37;;;;;;;;;;;;;;;14.50;100.00;99637.97;6306593;22;19961;-92
2022/06/04 14:59:21;;;;;;;;;;;;;;;14.05;100.00;99636.28;6312110;22;19966;-92
2022/06/04 15:01:57;;;;;;;;;;;;;;;13.91;100.00;99635.28;6311480;22;19915;-92
2022/06/04 15:04:48;;;;;;;;;;;;;;;13.61;100.00;99636.13;6289289;22;19911;-94
2022/06/04 15:07:16;;;;;;;;;;;;;;;13.82;100.00;99627.84;6287680;22;19918;-90
2022/06/04 15:09:41;;;;;;;;;;;;;;;13.65;100.00;99630.63;6290624;22;19953;-93
2022/06/04 15:12:25;;;;;;;;;;;;;;;13.65;100.00;99633.28;6310909;22;19911;-94
2022/06/04 15:15:29;;;;;;;;;;;;;;;13.77;100.00;99627.25;6312119;22;19914;-94
2022/06/04 15:18:20;;;;;;;;;;;;;;;13.53;100.00;99629.53;6217431;23;19912;-89
2022/06/04 15:20:45;;;;;;;;;;;;;;;13.77;100.00;99620.13;6212296;23;19943;-94
2022/06/04 15:23:26;;;;;;;;;;;;;;;13.64;100.00;99616.44;6274278;22;20307;-95
2022/06/04 15:25:59;;;;;;;;;;;;;;;13.56;100.00;99608.94;6312173;22;20273;-93
2022/06/04 15:34:03;;;;;;;;;;;;;;;13.62;100.00;99605.03;6253014;22;19911;-87
2022/06/04 15:36:43;;;;;;;;;;;;;;;13.30;100.00;99593.56;6311520;22;19918;-95
2022/06/04 15:39:14;;;;;;;;;;;;;;;13.61;100.00;99598.88;6312842;22;20315;-90
2022/06/04 15:41:56;;;;;;;;;;;;;;;13.66;100.00;99606.59;6314047;22;19911;-90
2022/06/04 15:44:23;;;;;;;;;;;;;;;13.57;100.00;99597.31;6287182;22;19912;-90
2022/06/04 15:47:26;;;;;;;;;;;;;;;13.78;100.00;99591.69;6282584;22;19918;-90
2022/06/04 15:56:18;;;;;;;;;;;;;;;14.75;100.00;99576.94;6275768;22;19919;-91
2022/06/04 15:58:43;;;;;;;;;;;;;;;14.57;100.00;99569.13;6278874;22;19948;-87
2022/06/04 16:01:24;;;;;;;;;;;;;;;15.04;100.00;99575.91;6304945;22;19923;-84
2022/06/04 16:04:00;;;;;;;;;;;;;;;14.57;100.00;99574.47;6304027;22;19910;-85
2022/06/04 16:06:26;;;;;;;;;;;;;;;14.34;100.00;99574.09;6304428;22;19918;-84
2022/06/04 16:09:14;;;;;;;;;;;;;;;13.77;100.00;99568.69;6302870;22;19943;-85
2022/06/04 16:11:55;;;;;;;;;;;;;;;14.05;100.00;99567.84;6288392;22;19911;-85
2022/06/04 16:14:23;;;;;;;;;;;;;;;13.87;100.00;99576.97;6307083;22;19954;-85
2022/06/04 16:17:07;;;;;;;;;;;;;;;13.83;100.00;99568.28;6337993;22;19915;-88
2022/06/04 16:19:32;;;;;;;;;;;;;;;13.98;100.00;99561.19;6311697;22;19910;-86
2022/06/04 16:22:18;;;;;;;;;;;;;;;13.58;100.00;99575.09;6338707;22;19918;-85
2022/06/04 16:24:48;;;;;;;;;;;;;;;13.85;100.00;99571.75;6337956;22;19911;-85
2022/06/04 16:27:22;;;;;;;;;;;;;;;14.54;100.00;99578.16;6338569;22;19914;-84
2022/06/04 16:29:47;;;;;;;;;;;;;;;13.95;100.00;99580.88;6310696;22;19910;-86
2022/06/04 16:32:22;;;;;;;;;;;;;;;14.01;100.00;99576.13;6338449;22;19945;-86
2022/06/04 16:35:04;;;;;;;;;;;;;;;13.62;100.00;99573.09;6310500;22;20382;-87
2022/06/04 16:37:29;;;;;;;;;;;;;;;13.88;100.00;99576.88;6337254;22;19917;-90
2022/06/04 16:39:55;;;;;;;;;;;;;;;14.00;100.00;99577.94;6338352;22;19915;-86
2022/06/04 16:42:25;;;;;;;;;;;;;;;13.77;100.00;99579.34;6338709;22;19915;-86
2022/06/04 16:44:58;;;;;;;;;;;;;;;13.99;100.00;99578.88;6338587;22;19910;-86
2022/06/04 16:47:23;;;;;;;;;;;;;;;13.73;100.00;99578.63;6337854;22;19911;-85
2022/06/04 16:49:49;;;;;;;;;;;;;;;13.90;100.00;99580.31;6338669;22;19914;-86
2022/06/04 16:52:29;;;;;;;;;;;;;;;14.02;100.00;99564.53;6336838;22;19919;-86
2022/06/04 16:54:55;;;;;;;;;;;;;;;13.72;100.00;99566.28;6311405;22;20315;-86
2022/06/04 16:57:21;;;;;;;;;;;;;;;13.96;100.00;99569.28;6310088;22;19919;-86
2022/06/04 16:59:46;;;;;;;;;;;;;;;13.91;100.00;99571.38;6338304;22;19910;-88
2022/06/04 17:02:22;;;;;;;;;;;;;;;13.79;100.00;99575.63;6338324;22;19933;-86
2022/06/04 17:05:03;;;;;;;;;;;;;;;14.08;100.00;99570.34;6338618;22;19915;-94
2022/06/04 17:07:34;;;;;;;;;;;;;;;13.71;100.00;99572.56;6336094;22;19933;-86
2022/06/04 17:10:22;;;;;;;;;;;;;;;14.42;100.00;99575.41;6338790;22;19994;-85
2022/06/04 17:12:52;;;;;;;;;;;;;;;14.04;100.00;99576.81;6293650;22;19934;-88
2022/06/04 17:16:04;;;;;;;;;;;;;;;13.80;100.00;99585.31;6311080;22;19914;-87
2022/06/04 17:18:50;;;;;;;;;;;;;;;13.89;100.00;99572.41;6314075;22;19934;-88
2022/06/04 17:21:27;;;;;;;;;;;;;;;13.50;100.00;99571.13;6338068;22;19922;-86
2022/06/04 17:23:59;;;;;;;;;;;;;;;13.77;100.00;99577.53;6336080;22;19961;-86
2022/06/04 17:26:24;;;;;;;;;;;;;;;13.41;100.00;99567.22;6310331;22;20106;-88
2022/06/04 17:29:10;;;;;;;;;;;;;;;13.64;100.00;99579.16;6337770;22;19911;-89
2022/06/04 17:31:57;;;;;;;;;;;;;;;13.71;100.00;99577.88;6337924;22;19911;-87
2022/06/04 17:34:28;;;;;;;;;;;;;;;13.51;100.00;99563.06;6338218;22;19997;-89
2022/06/04 17:37:05;;;;;;;;;;;;;;;13.80;100.00;99560.47;6336694;22;20352;-90
2022/06/04 17:39:38;;;;;;;;;;;;;;;13.31;100.00;99555.38;6336248;22;19921;-88
2022/06/04 17:42:04;;;;;;;;;;;;;;;13.69;100.00;99560.28;6337150;22;19917;-86
2022/06/04 17:44:31;;;;;;;;;;;;;;;13.79;100.00;99561.44;6310063;22;19938;-88
2022/06/04 17:46:57;;;;;;;;;;;;;;;13.55;100.00;99563.78;6309685;22;20218;-88
2022/06/04 17:52:15;;;;;;;;;;;;;;;13.43;100.00;99566.19;6272789;22;19918;-88
2022/06/04 17:54:50;;;;;;;;;;;;;;;13.75;100.00;99573.22;6338415;22;19992;-88
2022/06/04 17:57:15;;;;;;;;;;;;;;;13.86;100.00;99569.94;6320607;22;20227;-87
2022/06/04 17:59:43;;;;;;;;;;;;;;;13.60;100.00;99578.50;6305557;22;19921;-88
2022/06/04 18:02:08;;;;;;;;;;;;;;;13.80;100.00;99579.13;6278572;22;19942;-87
2022/06/04 18:04:33;;;;;;;;;;;;;;;13.58;100.00;99577.75;6306127;22;19914;-87
2022/06/04 18:06:59;;;;;;;;;;;;;;;13.67;100.00;99576.34;6306601;22;20290;-87
2022/06/04 18:09:24;;;;;;;;;;;;;;;13.87;100.00;99574.31;6304915;22;19993;-87
2022/06/04 18:11:55;;;;;;;;;;;;;;;13.52;100.00;99572.78;6278321;22;19918;-87
2022/06/04 18:14:23;;;;;;;;;;;;;;;13.86;100.00;99570.78;6279509;22;20295;-89
2022/06/04 18:16:50;;;;;;;;;;;;;;;13.89;100.00;99562.59;6305246;22;19915;-88
2022/06/04 18:19:46;;;;;;;;;;;;;;;;;;;;;
2022/06/04 18:22:12;;;;;;;;;;;;;;;13.99;100.00;99563.78;6304755;22;19977;-89
2022/06/04 18:24:39;;;;;;;;;;;;;;;13.75;100.00;99560.78;6279529;22;19938;-87
2022/06/04 18:27:12;;;;;;;;;;;;;;;13.99;100.00;99555.78;6279053;22;19911;-90
2022/06/04 18:29:37;;;;;;;;;;;;;;;14.04;100.00;99558.16;6279367;22;19918;-88
2022/06/04 18:32:03;;;;;;;;;;;;;;;13.87;100.00;99559.19;6305376;22;19915;-89
2022/06/04 18:34:36;;;;;;;;;;;;;;;14.03;100.00;99566.25;6304343;22;19918;-89
2022/06/04 18:37:10;;;;;;;;;;;;;;;13.66;100.00;99555.13;6278194;22;19911;-89
2022/06/04 18:39:39;;;;;;;;;;;;;;;13.89;100.00;99559.94;6277280;22;20409;-88